sensor_id;sensor_type;location;lat;lon;timestamp;pressure;altitude;pressure_sealevel;temperature;humidity
50310;BME280;36207;51.850;21.698;2023-07-13T00:02:17;99465.83;;;19.18;70.78
50310;BME280;36207;51.850;21.698;2023-07-13T00:04:43;99466.92;;;19.14;70.52
50310;BME280;36207;51.850;21.698;2023-07-13T00:07:09;99464.91;;;19.10;70.53
50310;BME280;36207;51.850;21.698;2023-07-13T00:09:35;99457.95;;;19.09;70.63
50310;BME280;36207;51.850;21.698;2023-07-13T00:12:02;99450.58;;;19.06;70.85
50310;BME280;36207;51.850;21.698;2023-07-13T00:14:28;99448.80;;;19.04;70.71
50310;BME280;36207;51.850;21.698;2023-07-13T00:16:55;99447.85;;;19.02;71.04
50310;BME280;36207;51.850;21.698;2023-07-13T00:19:21;99450.23;;;19.01;71.16
50310;BME280;36207;51.850;21.698;2023-07-13T00:21:47;99452.81;;;19.02;70.97
50310;BME280;36207;51.850;21.698;2023-07-13T00:24:17;99448.33;;;19.01;71.20
50310;BME280;36207;51.850;21.698;2023-07-13T00:26:49;99445.78;;;19.02;71.07
50310;BME280;36207;51.850;21.698;2023-07-13T00:29:15;99449.24;;;18.98;71.05
50310;BME280;36207;51.850;21.698;2023-07-13T00:31:42;99448.20;;;18.93;70.92
50310;BME280;36207;51.850;21.698;2023-07-13T00:34:12;99446.59;;;18.90;70.86
50310;BME280;36207;51.850;21.698;2023-07-13T00:36:38;99445.38;;;18.88;71.03
50310;BME280;36207;51.850;21.698;2023-07-13T00:39:04;99445.06;;;18.88;70.90
50310;BME280;36207;51.850;21.698;2023-07-13T00:41:31;99437.59;;;18.85;70.91
50310;BME280;36207;51.850;21.698;2023-07-13T00:43:57;99434.85;;;18.80;70.90
50310;BME280;36207;51.850;21.698;2023-07-13T00:46:29;99435.83;;;18.76;70.87
50310;BME280;36207;51.850;21.698;2023-07-13T00:48:59;99438.30;;;18.75;70.86
50310;BME280;36207;51.850;21.698;2023-07-13T00:51:31;99443.90;;;18.74;70.92
50310;BME280;36207;51.850;21.698;2023-07-13T00:54:00;99440.58;;;18.73;70.94
50310;BME280;36207;51.850;21.698;2023-07-13T00:56:30;99441.24;;;18.71;71.11
50310;BME280;36207;51.850;21.698;2023-07-13T00:58:59;99442.91;;;18.70;71.22
50310;BME280;36207;51.850;21.698;2023-07-13T01:01:26;99447.09;;;18.68;70.88
50310;BME280;36207;51.850;21.698;2023-07-13T01:03:52;99447.89;;;18.68;71.28
50310;BME280;36207;51.850;21.698;2023-07-13T01:06:20;99442.35;;;18.69;71.65
50310;BME280;36207;51.850;21.698;2023-07-13T01:08:46;99439.59;;;18.69;71.79
50310;BME280;36207;51.850;21.698;2023-07-13T01:11:12;99442.99;;;18.69;71.77
50310;BME280;36207;51.850;21.698;2023-07-13T01:13:37;99447.54;;;18.69;71.72
50310;BME280;36207;51.850;21.698;2023-07-13T01:16:13;99445.23;;;18.68;71.61
50310;BME280;36207;51.850;21.698;2023-07-13T01:18:40;99445.66;;;18.67;71.77
50310;BME280;36207;51.850;21.698;2023-07-13T01:21:06;99447.26;;;18.69;71.64
50310;BME280;36207;51.850;21.698;2023-07-13T01:23:33;99450.80;;;18.67;71.71
50310;BME280;36207;51.850;21.698;2023-07-13T01:25:59;99450.00;;;18.64;71.74
50310;BME280;36207;51.850;21.698;2023-07-13T01:28:26;99454.30;;;18.63;71.57
50310;BME280;36207;51.850;21.698;2023-07-13T01:30:54;99452.80;;;18.64;71.60
50310;BME280;36207;51.850;21.698;2023-07-13T01:33:20;99448.55;;;18.65;71.51
50310;BME280;36207;51.850;21.698;2023-07-13T01:35:47;99446.83;;;18.66;71.47
50310;BME280;36207;51.850;21.698;2023-07-13T01:38:18;99451.42;;;18.66;71.84
50310;BME280;36207;51.850;21.698;2023-07-13T01:40:45;99452.30;;;18.65;71.80
50310;BME280;36207;51.850;21.698;2023-07-13T01:43:12;99450.84;;;18.63;71.90
50310;BME280;36207;51.850;21.698;2023-07-13T01:45:38;99451.22;;;18.63;71.70
50310;BME280;36207;51.850;21.698;2023-07-13T01:48:05;99454.80;;;18.61;71.64
50310;BME280;36207;51.850;21.698;2023-07-13T01:50:34;99457.03;;;18.58;71.64
50310;BME280;36207;51.850;21.698;2023-07-13T01:53:00;99454.81;;;18.55;71.69
50310;BME280;36207;51.850;21.698;2023-07-13T01:55:27;99458.73;;;18.53;71.49
50310;BME280;36207;51.850;21.698;2023-07-13T01:57:54;99463.21;;;18.52;71.64
50310;BME280;36207;51.850;21.698;2023-07-13T02:00:20;99466.82;;;18.51;71.72
50310;BME280;36207;51.850;21.698;2023-07-13T02:02:46;99466.20;;;18.50;71.75
50310;BME280;36207;51.850;21.698;2023-07-13T02:05:13;99468.24;;;18.47;71.64
50310;BME280;36207;51.850;21.698;2023-07-13T02:07:39;99466.52;;;18.43;71.72
50310;BME280;36207;51.850;21.698;2023-07-13T02:10:07;99459.69;;;18.39;71.87
50310;BME280;36207;51.850;21.698;2023-07-13T02:12:34;99462.09;;;18.37;71.98
50310;BME280;36207;51.850;21.698;2023-07-13T02:15:00;99465.39;;;18.36;72.01
50310;BME280;36207;51.850;21.698;2023-07-13T02:17:26;99469.36;;;18.35;71.87
50310;BME280;36207;51.850;21.698;2023-07-13T02:19:53;99467.53;;;18.33;72.02
50310;BME280;36207;51.850;21.698;2023-07-13T02:22:19;99469.16;;;18.30;72.11
50310;BME280;36207;51.850;21.698;2023-07-13T02:24:48;99474.16;;;18.28;72.08
50310;BME280;36207;51.850;21.698;2023-07-13T02:27:14;99473.61;;;18.29;72.01
50310;BME280;36207;51.850;21.698;2023-07-13T02:29:41;99472.39;;;18.27;72.42
50310;BME280;36207;51.850;21.698;2023-07-13T02:32:09;99478.16;;;18.26;72.58
50310;BME280;36207;51.850;21.698;2023-07-13T02:34:35;99482.57;;;18.24;72.39
50310;BME280;36207;51.850;21.698;2023-07-13T02:37:02;99485.81;;;18.22;72.36
50310;BME280;36207;51.850;21.698;2023-07-13T02:39:28;99485.14;;;18.21;72.45
50310;BME280;36207;51.850;21.698;2023-07-13T02:41:54;99485.56;;;18.23;72.80
50310;BME280;36207;51.850;21.698;2023-07-13T02:44:20;99486.91;;;18.23;72.82
50310;BME280;36207;51.850;21.698;2023-07-13T02:46:46;99489.11;;;18.24;72.85
50310;BME280;36207;51.850;21.698;2023-07-13T02:49:12;99491.29;;;18.25;72.96
50310;BME280;36207;51.850;21.698;2023-07-13T02:51:39;99483.73;;;18.26;73.10
50310;BME280;36207;51.850;21.698;2023-07-13T02:54:05;99481.79;;;18.29;73.05
50310;BME280;36207;51.850;21.698;2023-07-13T02:56:32;99480.48;;;18.32;72.93
50310;BME280;36207;51.850;21.698;2023-07-13T02:58:58;99480.13;;;18.34;73.02
50310;BME280;36207;51.850;21.698;2023-07-13T03:01:25;99476.20;;;18.34;73.09
50310;BME280;36207;51.850;21.698;2023-07-13T03:03:52;99476.26;;;18.37;72.93
50310;BME280;36207;51.850;21.698;2023-07-13T03:06:18;99477.71;;;18.41;72.94
50310;BME280;36207;51.850;21.698;2023-07-13T03:08:45;99473.92;;;18.43;72.89
50310;BME280;36207;51.850;21.698;2023-07-13T03:11:14;99474.10;;;18.44;73.07
50310;BME280;36207;51.850;21.698;2023-07-13T03:13:42;99471.18;;;18.42;73.11
50310;BME280;36207;51.850;21.698;2023-07-13T03:16:08;99472.70;;;18.38;73.09
50310;BME280;36207;51.850;21.698;2023-07-13T03:18:36;99473.58;;;18.36;73.03
50310;BME280;36207;51.850;21.698;2023-07-13T03:21:03;99472.16;;;18.36;73.07
50310;BME280;36207;51.850;21.698;2023-07-13T03:23:31;99470.09;;;18.38;73.24
50310;BME280;36207;51.850;21.698;2023-07-13T03:28:32;99472.67;;;18.39;73.43
50310;BME280;36207;51.850;21.698;2023-07-13T03:31:03;99475.02;;;18.38;73.27
50310;BME280;36207;51.850;21.698;2023-07-13T03:33:30;99480.89;;;18.40;73.08
50310;BME280;36207;51.850;21.698;2023-07-13T03:35:56;99486.09;;;18.43;73.36
50310;BME280;36207;51.850;21.698;2023-07-13T03:38:22;99488.95;;;18.49;73.51
50310;BME280;36207;51.850;21.698;2023-07-13T03:40:49;99487.50;;;18.52;73.70
50310;BME280;36207;51.850;21.698;2023-07-13T03:43:15;99484.78;;;18.55;73.65
50310;BME280;36207;51.850;21.698;2023-07-13T03:45:41;99481.91;;;18.58;73.45
50310;BME280;36207;51.850;21.698;2023-07-13T03:48:07;99484.63;;;18.65;73.79
50310;BME280;36207;51.850;21.698;2023-07-13T03:50:33;99486.39;;;18.71;73.72
50310;BME280;36207;51.850;21.698;2023-07-13T03:52:59;99487.31;;;18.77;73.60
50310;BME280;36207;51.850;21.698;2023-07-13T03:55:29;99486.06;;;18.82;73.81
50310;BME280;36207;51.850;21.698;2023-07-13T03:58:00;99483.30;;;18.88;73.82
50310;BME280;36207;51.850;21.698;2023-07-13T04:00:27;99482.84;;;18.93;73.88
50310;BME280;36207;51.850;21.698;2023-07-13T04:02:53;99483.67;;;18.98;73.96
50310;BME280;36207;51.850;21.698;2023-07-13T04:05:19;99481.33;;;19.05;73.78
50310;BME280;36207;51.850;21.698;2023-07-13T04:07:45;99479.52;;;19.09;73.73
50310;BME280;36207;51.850;21.698;2023-07-13T04:10:11;99478.65;;;19.13;73.96
50310;BME280;36207;51.850;21.698;2023-07-13T04:12:37;99480.00;;;19.17;73.63
50310;BME280;36207;51.850;21.698;2023-07-13T04:15:03;99483.09;;;19.22;73.92
50310;BME280;36207;51.850;21.698;2023-07-13T04:17:30;99483.90;;;19.29;73.94
50310;BME280;36207;51.850;21.698;2023-07-13T04:19:56;99483.89;;;19.36;73.65
50310;BME280;36207;51.850;21.698;2023-07-13T04:22:22;99490.48;;;19.43;73.76
50310;BME280;36207;51.850;21.698;2023-07-13T04:24:48;99496.14;;;19.52;73.69
50310;BME280;36207;51.850;21.698;2023-07-13T04:27:14;99498.90;;;19.60;73.81
50310;BME280;36207;51.850;21.698;2023-07-13T04:29:40;99501.96;;;19.69;73.81
50310;BME280;36207;51.850;21.698;2023-07-13T04:32:09;99509.60;;;19.78;73.59
50310;BME280;36207;51.850;21.698;2023-07-13T04:34:35;99507.52;;;19.85;73.44
50310;BME280;36207;51.850;21.698;2023-07-13T04:37:02;99507.19;;;19.93;73.65
50310;BME280;36207;51.850;21.698;2023-07-13T04:39:28;99510.56;;;20.03;73.77
50310;BME280;36207;51.850;21.698;2023-07-13T04:41:54;99511.13;;;20.15;74.14
50310;BME280;36207;51.850;21.698;2023-07-13T04:44:22;99511.73;;;20.26;73.70
50310;BME280;36207;51.850;21.698;2023-07-13T04:46:48;99514.38;;;20.36;73.77
50310;BME280;36207;51.850;21.698;2023-07-13T04:49:14;99515.13;;;20.45;73.84
50310;BME280;36207;51.850;21.698;2023-07-13T04:51:40;99515.92;;;20.54;73.97
50310;BME280;36207;51.850;21.698;2023-07-13T04:54:06;99517.81;;;20.62;73.78
50310;BME280;36207;51.850;21.698;2023-07-13T04:56:33;99523.20;;;20.70;73.77
50310;BME280;36207;51.850;21.698;2023-07-13T04:58:59;99523.48;;;20.76;73.64
50310;BME280;36207;51.850;21.698;2023-07-13T05:01:25;99522.77;;;20.83;73.61
50310;BME280;36207;51.850;21.698;2023-07-13T05:03:52;99519.54;;;20.91;73.61
50310;BME280;36207;51.850;21.698;2023-07-13T05:06:18;99519.48;;;20.98;73.53
50310;BME280;36207;51.850;21.698;2023-07-13T05:08:43;99515.25;;;21.05;73.51
50310;BME280;36207;51.850;21.698;2023-07-13T05:11:10;99512.14;;;21.11;73.41
50310;BME280;36207;51.850;21.698;2023-07-13T05:13:36;99514.08;;;21.16;73.39
50310;BME280;36207;51.850;21.698;2023-07-13T05:16:04;99520.73;;;21.22;73.44
50310;BME280;36207;51.850;21.698;2023-07-13T05:18:31;99522.84;;;21.28;73.43
50310;BME280;36207;51.850;21.698;2023-07-13T05:21:04;99522.48;;;21.31;73.17
50310;BME280;36207;51.850;21.698;2023-07-13T05:23:31;99526.31;;;21.35;73.27
50310;BME280;36207;51.850;21.698;2023-07-13T05:25:58;99532.89;;;21.40;73.33
50310;BME280;36207;51.850;21.698;2023-07-13T05:28:31;99542.02;;;21.47;73.20
50310;BME280;36207;51.850;21.698;2023-07-13T05:31:03;99550.02;;;21.51;72.95
50310;BME280;36207;51.850;21.698;2023-07-13T05:33:51;99544.77;;;21.54;73.04
50310;BME280;36207;51.850;21.698;2023-07-13T05:36:18;99547.17;;;21.57;73.22
50310;BME280;36207;51.850;21.698;2023-07-13T05:38:49;99549.88;;;21.56;73.07
50310;BME280;36207;51.850;21.698;2023-07-13T05:41:27;99549.51;;;21.57;73.02
50310;BME280;36207;51.850;21.698;2023-07-13T05:43:53;99548.11;;;21.60;72.95
50310;BME280;36207;51.850;21.698;2023-07-13T05:46:25;99552.14;;;21.62;73.12
50310;BME280;36207;51.850;21.698;2023-07-13T05:49:10;99553.13;;;21.63;72.98
50310;BME280;36207;51.850;21.698;2023-07-13T05:51:37;99556.38;;;21.72;73.15
50310;BME280;36207;51.850;21.698;2023-07-13T05:54:09;99554.26;;;21.81;73.02
50310;BME280;36207;51.850;21.698;2023-07-13T05:56:35;99553.25;;;21.87;72.89
50310;BME280;36207;51.850;21.698;2023-07-13T05:59:01;99557.41;;;21.95;72.83
50310;BME280;36207;51.850;21.698;2023-07-13T06:01:27;99561.95;;;22.02;72.78
50310;BME280;36207;51.850;21.698;2023-07-13T06:03:53;99562.69;;;22.06;72.78
50310;BME280;36207;51.850;21.698;2023-07-13T06:06:19;99561.20;;;22.14;72.68
50310;BME280;36207;51.850;21.698;2023-07-13T06:08:45;99564.51;;;22.19;72.76
50310;BME280;36207;51.850;21.698;2023-07-13T06:11:18;99561.37;;;22.25;72.63
50310;BME280;36207;51.850;21.698;2023-07-13T06:13:45;99564.05;;;22.33;72.25
50310;BME280;36207;51.850;21.698;2023-07-13T06:16:14;99567.56;;;22.37;72.26
50310;BME280;36207;51.850;21.698;2023-07-13T06:18:41;99572.24;;;22.42;72.39
50310;BME280;36207;51.850;21.698;2023-07-13T06:21:10;99573.08;;;22.50;72.16
50310;BME280;36207;51.850;21.698;2023-07-13T06:23:37;99572.71;;;22.55;71.89
50310;BME280;36207;51.850;21.698;2023-07-13T06:26:04;99567.11;;;22.57;71.83
50310;BME280;36207;51.850;21.698;2023-07-13T06:28:37;99557.98;;;22.62;71.97
50310;BME280;36207;51.850;21.698;2023-07-13T06:31:12;99552.66;;;22.70;71.74
50310;BME280;36207;51.850;21.698;2023-07-13T06:33:40;99547.44;;;22.73;71.64
50310;BME280;36207;51.850;21.698;2023-07-13T06:36:07;99547.60;;;22.75;71.39
50310;BME280;36207;51.850;21.698;2023-07-13T06:38:35;99555.33;;;22.79;71.14
50310;BME280;36207;51.850;21.698;2023-07-13T06:41:01;99557.73;;;22.80;70.82
50310;BME280;36207;51.850;21.698;2023-07-13T06:43:50;99563.06;;;22.85;70.72
50310;BME280;36207;51.850;21.698;2023-07-13T06:46:39;99562.61;;;22.95;71.00
50310;BME280;36207;51.850;21.698;2023-07-13T06:49:11;99556.89;;;23.08;70.80
50310;BME280;36207;51.850;21.698;2023-07-13T06:51:42;99551.12;;;23.21;70.79
50310;BME280;36207;51.850;21.698;2023-07-13T06:54:13;99540.96;;;23.35;70.87
50310;BME280;36207;51.850;21.698;2023-07-13T06:56:42;99534.52;;;23.43;70.41
50310;BME280;36207;51.850;21.698;2023-07-13T06:59:08;99534.89;;;23.49;70.41
50310;BME280;36207;51.850;21.698;2023-07-13T07:01:34;99534.86;;;23.57;70.84
50310;BME280;36207;51.850;21.698;2023-07-13T07:04:00;99532.61;;;23.70;70.51
50310;BME280;36207;51.850;21.698;2023-07-13T07:06:26;99537.45;;;23.80;70.08
50310;BME280;36207;51.850;21.698;2023-07-13T07:08:53;99538.41;;;23.83;69.45
50310;BME280;36207;51.850;21.698;2023-07-13T07:11:41;99548.28;;;23.84;69.48
50310;BME280;36207;51.850;21.698;2023-07-13T07:14:08;99557.16;;;23.88;69.48
50310;BME280;36207;51.850;21.698;2023-07-13T07:16:35;99567.50;;;23.93;69.36
50310;BME280;36207;51.850;21.698;2023-07-13T07:19:01;99569.41;;;23.94;69.40
50310;BME280;36207;51.850;21.698;2023-07-13T07:21:29;99567.11;;;23.97;69.36
50310;BME280;36207;51.850;21.698;2023-07-13T07:24:07;99564.09;;;24.00;69.21
50310;BME280;36207;51.850;21.698;2023-07-13T07:26:47;99562.17;;;24.03;69.00
50310;BME280;36207;51.850;21.698;2023-07-13T07:29:19;99558.89;;;24.04;68.86
50310;BME280;36207;51.850;21.698;2023-07-13T07:31:48;99560.66;;;24.00;68.48
50310;BME280;36207;51.850;21.698;2023-07-13T07:34:14;99567.71;;;23.95;68.43
50310;BME280;36207;51.850;21.698;2023-07-13T07:36:40;99567.73;;;23.92;68.29
50310;BME280;36207;51.850;21.698;2023-07-13T07:39:12;99565.61;;;23.91;68.27
50310;BME280;36207;51.850;21.698;2023-07-13T07:41:38;99569.05;;;23.89;68.18
50310;BME280;36207;51.850;21.698;2023-07-13T07:44:04;99570.91;;;23.86;68.01
50310;BME280;36207;51.850;21.698;2023-07-13T07:46:33;99571.20;;;23.81;67.70
50310;BME280;36207;51.850;21.698;2023-07-13T07:48:59;99574.75;;;23.77;67.57
50310;BME280;36207;51.850;21.698;2023-07-13T07:51:26;99575.72;;;23.67;67.33
50310;BME280;36207;51.850;21.698;2023-07-13T07:53:52;99575.52;;;23.61;67.39
50310;BME280;36207;51.850;21.698;2023-07-13T07:56:18;99577.26;;;23.61;67.44
50310;BME280;36207;51.850;21.698;2023-07-13T07:58:44;99579.98;;;23.63;67.53
50310;BME280;36207;51.850;21.698;2023-07-13T08:01:10;99579.00;;;23.64;67.21
50310;BME280;36207;51.850;21.698;2023-07-13T08:03:37;99579.11;;;23.64;66.92
50310;BME280;36207;51.850;21.698;2023-07-13T08:06:03;99577.05;;;23.63;66.81
50310;BME280;36207;51.850;21.698;2023-07-13T08:08:29;99580.64;;;23.63;66.58
50310;BME280;36207;51.850;21.698;2023-07-13T08:10:55;99583.25;;;23.64;66.44
50310;BME280;36207;51.850;21.698;2023-07-13T08:13:26;99580.04;;;23.67;66.62
50310;BME280;36207;51.850;21.698;2023-07-13T08:15:57;99577.48;;;23.71;66.60
50310;BME280;36207;51.850;21.698;2023-07-13T08:18:29;99578.47;;;23.73;66.46
50310;BME280;36207;51.850;21.698;2023-07-13T08:21:07;99577.38;;;23.76;66.16
50310;BME280;36207;51.850;21.698;2023-07-13T08:23:35;99574.06;;;23.83;66.21
50310;BME280;36207;51.850;21.698;2023-07-13T08:26:07;99563.57;;;23.95;66.16
50310;BME280;36207;51.850;21.698;2023-07-13T08:28:39;99557.80;;;24.06;65.83
50310;BME280;36207;51.850;21.698;2023-07-13T08:31:21;99553.67;;;24.13;65.58
50310;BME280;36207;51.850;21.698;2023-07-13T08:33:50;99554.80;;;24.17;66.03
50310;BME280;36207;51.850;21.698;2023-07-13T08:36:22;99554.34;;;24.23;65.81
50310;BME280;36207;51.850;21.698;2023-07-13T08:38:56;99552.04;;;24.22;65.29
50310;BME280;36207;51.850;21.698;2023-07-13T08:41:25;99550.69;;;24.23;65.61
50310;BME280;36207;51.850;21.698;2023-07-13T08:43:59;99552.52;;;24.27;65.86
50310;BME280;36207;51.850;21.698;2023-07-13T08:46:36;99554.08;;;24.33;66.04
50310;BME280;36207;51.850;21.698;2023-07-13T08:49:22;99555.13;;;24.39;65.94
50310;BME280;36207;51.850;21.698;2023-07-13T08:54:52;99566.36;;;24.44;65.83
50310;BME280;36207;51.850;21.698;2023-07-13T08:57:26;99566.91;;;24.45;65.41
50310;BME280;36207;51.850;21.698;2023-07-13T08:59:56;99570.30;;;24.40;65.36
50310;BME280;36207;51.850;21.698;2023-07-13T09:05:15;99570.77;;;24.35;65.29
50310;BME280;36207;51.850;21.698;2023-07-13T09:15:34;99578.14;;;24.30;65.39
50310;BME280;36207;51.850;21.698;2023-07-13T09:20:58;99572.73;;;24.44;65.78
50310;BME280;36207;51.850;21.698;2023-07-13T09:23:28;99563.66;;;24.59;65.44
50310;BME280;36207;51.850;21.698;2023-07-13T09:26:04;99559.67;;;24.67;65.33
50310;BME280;36207;51.850;21.698;2023-07-13T09:28:43;99558.49;;;24.71;65.21
50310;BME280;36207;51.850;21.698;2023-07-13T09:31:42;99556.57;;;24.81;65.12
50310;BME280;36207;51.850;21.698;2023-07-13T09:34:15;99560.17;;;25.04;65.17
50310;BME280;36207;51.850;21.698;2023-07-13T09:36:42;99557.25;;;25.27;65.17
50310;BME280;36207;51.850;21.698;2023-07-13T09:39:28;99555.95;;;25.49;63.77
50310;BME280;36207;51.850;21.698;2023-07-13T09:42:12;99558.21;;;25.63;61.73
50310;BME280;36207;51.850;21.698;2023-07-13T09:45:01;99555.73;;;25.74;59.98
50310;BME280;36207;51.850;21.698;2023-07-13T09:47:38;99556.81;;;25.81;60.97
50310;BME280;36207;51.850;21.698;2023-07-13T09:50:15;99558.36;;;25.96;61.47
50310;BME280;36207;51.850;21.698;2023-07-13T09:52:49;99558.91;;;26.08;60.59
50310;BME280;36207;51.850;21.698;2023-07-13T09:55:37;99553.84;;;26.21;60.40
50310;BME280;36207;51.850;21.698;2023-07-13T09:58:09;99549.53;;;26.31;59.67
50310;BME280;36207;51.850;21.698;2023-07-13T10:00:37;99549.17;;;26.41;58.73
50310;BME280;36207;51.850;21.698;2023-07-13T10:03:14;99543.16;;;26.50;58.51
50310;BME280;36207;51.850;21.698;2023-07-13T10:05:44;99539.86;;;26.58;58.28
50310;BME280;36207;51.850;21.698;2023-07-13T10:08:24;99536.46;;;26.69;58.88
50310;BME280;36207;51.850;21.698;2023-07-13T10:10:59;99530.88;;;26.79;58.49
50310;BME280;36207;51.850;21.698;2023-07-13T10:13:35;99530.31;;;26.91;58.77
50310;BME280;36207;51.850;21.698;2023-07-13T10:16:08;99524.48;;;27.02;58.85
50310;BME280;36207;51.850;21.698;2023-07-13T10:18:58;99516.58;;;27.12;59.23
50310;BME280;36207;51.850;21.698;2023-07-13T10:21:33;99512.63;;;27.29;58.58
50310;BME280;36207;51.850;21.698;2023-07-13T10:24:21;99507.10;;;27.41;57.94
50310;BME280;36207;51.850;21.698;2023-07-13T10:27:31;99502.91;;;27.56;58.66
50310;BME280;36207;51.850;21.698;2023-07-13T10:30:12;99501.51;;;27.77;58.43
50310;BME280;36207;51.850;21.698;2023-07-13T10:32:42;99493.80;;;27.90;57.27
50310;BME280;36207;51.850;21.698;2023-07-13T10:35:15;99499.13;;;27.81;54.36
50310;BME280;36207;51.850;21.698;2023-07-13T10:38:01;99502.06;;;27.71;55.55
50310;BME280;36207;51.850;21.698;2023-07-13T10:43:25;99499.79;;;27.72;55.13
50310;BME280;36207;51.850;21.698;2023-07-13T10:45:57;99492.66;;;27.67;54.55
50310;BME280;36207;51.850;21.698;2023-07-13T10:48:28;99485.64;;;27.62;54.58
50310;BME280;36207;51.850;21.698;2023-07-13T10:50:58;99481.16;;;27.60;53.38
50310;BME280;36207;51.850;21.698;2023-07-13T10:53:32;99480.40;;;27.55;54.00
50310;BME280;36207;51.850;21.698;2023-07-13T10:56:04;99472.25;;;27.62;54.05
50310;BME280;36207;51.850;21.698;2023-07-13T10:58:38;99463.95;;;27.71;54.19
50310;BME280;36207;51.850;21.698;2023-07-13T11:03:37;99465.52;;;27.74;51.84
50310;BME280;36207;51.850;21.698;2023-07-13T11:11:45;99453.98;;;27.70;52.06
50310;BME280;36207;51.850;21.698;2023-07-13T11:14:41;99451.30;;;27.66;51.90
50310;BME280;36207;51.850;21.698;2023-07-13T11:23:08;99461.77;;;27.48;51.72
50310;BME280;36207;51.850;21.698;2023-07-13T11:25:39;99464.34;;;27.40;51.73
50310;BME280;36207;51.850;21.698;2023-07-13T11:30:47;99454.84;;;27.33;52.53
50310;BME280;36207;51.850;21.698;2023-07-13T11:33:28;99453.01;;;27.31;51.27
50310;BME280;36207;51.850;21.698;2023-07-13T11:36:16;99451.88;;;27.21;50.66
50310;BME280;36207;51.850;21.698;2023-07-13T11:38:48;99456.67;;;27.09;51.74
50310;BME280;36207;51.850;21.698;2023-07-13T11:41:28;99461.11;;;27.06;51.57
50310;BME280;36207;51.850;21.698;2023-07-13T11:44:16;99465.40;;;27.03;51.50
50310;BME280;36207;51.850;21.698;2023-07-13T11:46:50;99464.36;;;26.96;51.69
50310;BME280;36207;51.850;21.698;2023-07-13T11:49:24;99465.06;;;26.91;51.84
50310;BME280;36207;51.850;21.698;2023-07-13T11:51:53;99465.73;;;26.88;51.77
50310;BME280;36207;51.850;21.698;2023-07-13T11:54:27;99459.20;;;26.81;51.72
50310;BME280;36207;51.850;21.698;2023-07-13T11:57:11;99460.00;;;26.69;51.44
50310;BME280;36207;51.850;21.698;2023-07-13T11:59:42;99460.91;;;26.58;51.84
50310;BME280;36207;51.850;21.698;2023-07-13T12:02:18;99459.90;;;26.47;52.14
50310;BME280;36207;51.850;21.698;2023-07-13T12:04:53;99462.65;;;26.42;52.30
50310;BME280;36207;51.850;21.698;2023-07-13T12:07:19;99463.02;;;26.36;52.04
50310;BME280;36207;51.850;21.698;2023-07-13T12:09:46;99471.04;;;26.31;51.97
50310;BME280;36207;51.850;21.698;2023-07-13T12:12:18;99479.35;;;26.25;52.14
50310;BME280;36207;51.850;21.698;2023-07-13T12:15:00;99483.95;;;26.15;52.37
50310;BME280;36207;51.850;21.698;2023-07-13T12:17:35;99478.46;;;26.09;52.96
50310;BME280;36207;51.850;21.698;2023-07-13T12:20:11;99479.84;;;26.06;52.92
50310;BME280;36207;51.850;21.698;2023-07-13T12:22:46;99491.33;;;26.05;52.63
50310;BME280;36207;51.850;21.698;2023-07-13T12:25:22;99505.70;;;26.02;52.74
50310;BME280;36207;51.850;21.698;2023-07-13T12:30:38;99532.84;;;25.48;53.03
50310;BME280;36207;51.850;21.698;2023-07-13T12:33:11;99542.77;;;25.21;53.15
50310;BME280;36207;51.850;21.698;2023-07-13T12:35:46;99561.55;;;24.93;53.35
50310;BME280;36207;51.850;21.698;2023-07-13T12:38:13;99588.02;;;24.64;53.81
50310;BME280;36207;51.850;21.698;2023-07-13T12:40:40;99605.58;;;24.35;54.95
50310;BME280;36207;51.850;21.698;2023-07-13T12:43:13;99621.21;;;23.96;55.35
50310;BME280;36207;51.850;21.698;2023-07-13T12:46:02;99616.14;;;23.55;56.31
50310;BME280;36207;51.850;21.698;2023-07-13T12:48:39;99605.52;;;23.12;56.98
50310;BME280;36207;51.850;21.698;2023-07-13T12:51:10;99616.19;;;22.75;57.24
50310;BME280;36207;51.850;21.698;2023-07-13T12:53:41;99625.57;;;22.42;57.89
50310;BME280;36207;51.850;21.698;2023-07-13T12:56:18;99626.84;;;22.13;58.38
50310;BME280;36207;51.850;21.698;2023-07-13T12:58:47;99641.53;;;21.87;58.81
50310;BME280;36207;51.850;21.698;2023-07-13T13:01:19;99650.65;;;21.68;59.29
50310;BME280;36207;51.850;21.698;2023-07-13T13:04:00;99652.31;;;21.51;59.38
50310;BME280;36207;51.850;21.698;2023-07-13T13:06:30;99657.23;;;21.36;59.40
50310;BME280;36207;51.850;21.698;2023-07-13T13:09:11;99667.34;;;21.26;59.89
50310;BME280;36207;51.850;21.698;2023-07-13T13:11:46;99673.41;;;21.13;60.20
50310;BME280;36207;51.850;21.698;2023-07-13T13:14:22;99677.05;;;21.01;60.20
50310;BME280;36207;51.850;21.698;2023-07-13T13:16:52;99676.88;;;20.91;60.78
50310;BME280;36207;51.850;21.698;2023-07-13T13:19:26;99678.45;;;20.82;61.01
50310;BME280;36207;51.850;21.698;2023-07-13T13:22:07;99671.52;;;20.72;61.24
50310;BME280;36207;51.850;21.698;2023-07-13T13:24:38;99666.99;;;20.66;61.35
50310;BME280;36207;51.850;21.698;2023-07-13T13:27:25;99664.41;;;20.62;61.27
50310;BME280;36207;51.850;21.698;2023-07-13T13:29:53;99662.39;;;20.56;61.85
50310;BME280;36207;51.850;21.698;2023-07-13T13:32:32;99656.84;;;20.48;62.19
50310;BME280;36207;51.850;21.698;2023-07-13T13:34:58;99652.22;;;20.42;62.49
50310;BME280;36207;51.850;21.698;2023-07-13T13:37:27;99652.98;;;20.38;62.29
50310;BME280;36207;51.850;21.698;2023-07-13T13:39:53;99654.11;;;20.34;62.41
50310;BME280;36207;51.850;21.698;2023-07-13T13:42:19;99655.85;;;20.35;62.63
50310;BME280;36207;51.850;21.698;2023-07-13T13:44:48;99654.52;;;20.35;62.71
50310;BME280;36207;51.850;21.698;2023-07-13T13:47:30;99654.55;;;20.35;62.94
50310;BME280;36207;51.850;21.698;2023-07-13T13:49:57;99651.66;;;20.32;63.14